createdAt,value
2022-08-11T00:01:54.344Z,17.65
2022-08-11T00:04:28.647Z,17.66
2022-08-11T00:06:57.045Z,17.68
2022-08-11T00:09:39.355Z,17.69
2022-08-11T00:12:18.282Z,17.66
2022-08-11T00:14:46.940Z,17.59
2022-08-11T00:17:16.521Z,17.58
2022-08-11T00:20:14.779Z,17.61
2022-08-11T00:22:41.925Z,17.58
2022-08-11T00:25:20.820Z,17.53
2022-08-11T00:27:49.496Z,17.43
2022-08-11T00:30:17.239Z,17.44
2022-08-11T00:32:54.891Z,17.37
2022-08-11T00:35:50.977Z,17.36
2022-08-11T00:38:15.680Z,17.35
2022-08-11T00:41:07.233Z,17.38
2022-08-11T00:44:01.049Z,17.37
2022-08-11T00:47:05.946Z,17.40
2022-08-11T00:49:58.287Z,17.36
2022-08-11T00:52:40.753Z,17.30
2022-08-11T00:55:34.140Z,17.32
2022-08-11T00:58:21.853Z,17.36
2022-08-11T01:01:10.563Z,17.32
2022-08-11T01:04:09.260Z,17.35
2022-08-11T01:07:06.206Z,17.26
2022-08-11T01:10:03.789Z,17.28
2022-08-11T01:12:53.386Z,17.25
2022-08-11T01:15:23.900Z,17.21
2022-08-11T01:18:10.073Z,17.24
2022-08-11T01:20:47.525Z,17.19
2022-08-11T01:23:40.556Z,17.19
2022-08-11T01:26:46.372Z,17.20
2022-08-11T01:29:52.825Z,17.19
2022-08-11T01:32:37.145Z,17.17
2022-08-11T01:35:42.490Z,17.23
2022-08-11T01:38:38.465Z,17.19
2022-08-11T01:41:26.372Z,17.13
2022-08-11T01:44:30.401Z,17.07
2022-08-11T01:47:33.327Z,17.11
2022-08-11T01:50:16.679Z,17.12
2022-08-11T01:53:10.054Z,17.14
2022-08-11T01:55:58.055Z,17.09
2022-08-11T01:58:43.289Z,17.01
2022-08-11T02:01:20.825Z,17.01
2022-08-11T02:03:58.743Z,17.03
2022-08-11T02:06:57.248Z,17.00
2022-08-11T02:10:22.335Z,17.06
2022-08-11T02:13:17.159Z,17.07
2022-08-11T02:16:05.662Z,17.07
2022-08-11T02:18:55.524Z,17.09
2022-08-11T02:22:15.154Z,17.21
2022-08-11T02:25:07.442Z,17.20
2022-08-11T02:27:44.771Z,17.28
2022-08-11T02:30:16.703Z,17.23
2022-08-11T02:33:24.313Z,17.41
2022-08-11T02:36:21.624Z,17.53
2022-08-11T02:38:51.946Z,17.55
2022-08-11T02:41:48.881Z,17.62
2022-08-11T02:44:31.318Z,17.64
2022-08-11T02:47:18.090Z,17.74
2022-08-11T02:50:02.556Z,17.82
2022-08-11T02:52:52.182Z,17.88
2022-08-11T02:55:57.480Z,17.96
2022-08-11T02:59:09.182Z,18.04
2022-08-11T03:01:49.439Z,18.07
2022-08-11T03:04:45.983Z,18.15
2022-08-11T03:07:28.184Z,18.21
2022-08-11T03:10:29.162Z,18.23
2022-08-11T03:13:38.201Z,18.35
2022-08-11T03:16:36.266Z,18.36
2022-08-11T03:19:18.749Z,18.60
2022-08-11T03:22:02.418Z,18.51
2022-08-11T03:24:46.635Z,18.59
2022-08-11T03:27:58.140Z,18.71
2022-08-11T03:30:57.081Z,18.82
2022-08-11T03:33:50.906Z,18.85
2022-08-11T03:37:14.882Z,19.01
2022-08-11T03:40:00.347Z,19.14
2022-08-11T03:42:44.397Z,19.22
2022-08-11T03:45:29.943Z,19.26
2022-08-11T03:48:03.299Z,19.33
2022-08-11T03:51:02.006Z,19.49
2022-08-11T03:53:41.338Z,19.51
2022-08-11T03:56:14.365Z,19.59
2022-08-11T03:59:26.578Z,19.81
2022-08-11T04:02:06.219Z,19.71
2022-08-11T04:04:52.370Z,19.89
2022-08-11T04:07:44.526Z,19.95
2022-08-11T04:10:23.941Z,19.91
2022-08-11T04:13:17.667Z,20.06
2022-08-11T04:16:14.412Z,20.13
2022-08-11T04:19:03.753Z,20.13
2022-08-11T04:21:37.083Z,20.23
2022-08-11T04:25:01.585Z,20.39
2022-08-11T04:27:39.634Z,20.39
2022-08-11T04:30:26.824Z,20.46
2022-08-11T04:33:35.375Z,20.59
2022-08-11T04:37:01.464Z,20.69
2022-08-11T04:40:15.510Z,20.83
2022-08-11T04:43:13.410Z,20.84
2022-08-11T04:46:08.631Z,20.94
2022-08-11T04:49:33.819Z,21.12
2022-08-11T04:52:55.396Z,21.27
2022-08-11T04:56:03.006Z,21.40
2022-08-11T04:59:15.047Z,21.42
2022-08-11T05:01:51.279Z,21.59
2022-08-11T05:05:01.906Z,21.62
2022-08-11T05:07:48.538Z,21.85
2022-08-11T05:10:42.952Z,21.96
2022-08-11T05:13:31.284Z,22.05
2022-08-11T05:16:27.401Z,22.23
2022-08-11T05:19:16.180Z,22.32
2022-08-11T05:22:11.669Z,22.55
2022-08-11T05:25:08.791Z,22.70
2022-08-11T05:28:04.072Z,22.90
2022-08-11T05:30:50.981Z,23.07
2022-08-11T05:33:43.977Z,23.22
2022-08-11T05:36:39.072Z,23.51
2022-08-11T05:39:36.704Z,23.49
2022-08-11T05:42:30.185Z,23.59
2022-08-11T05:45:57.388Z,23.70
2022-08-11T05:48:39.056Z,23.86
2022-08-11T05:51:30.225Z,23.97
2022-08-11T05:54:29.095Z,24.16
2022-08-11T05:57:00.261Z,24.20
2022-08-11T05:59:28.897Z,24.24
2022-08-11T06:02:02.960Z,24.38
2022-08-11T06:04:31.657Z,24.52
2022-08-11T06:07:00.798Z,24.60
2022-08-11T06:09:31.111Z,24.78
2022-08-11T06:12:03.683Z,24.89
2022-08-11T06:14:33.479Z,25.05
2022-08-11T06:17:06.724Z,25.15
2022-08-11T06:19:38.627Z,25.22
2022-08-11T06:22:08.703Z,25.34
2022-08-11T06:24:40.315Z,25.38
2022-08-11T06:27:12.785Z,25.55
2022-08-11T06:29:55.343Z,25.73
2022-08-11T06:32:29.417Z,25.83
2022-08-11T06:35:02.734Z,26.04
2022-08-11T06:37:42.457Z,26.22
2022-08-11T06:40:31.810Z,26.30
2022-08-11T06:43:05.067Z,26.48
2022-08-11T06:46:03.398Z,26.81
2022-08-11T06:48:40.693Z,26.94
2022-08-11T06:51:14.256Z,27.14
2022-08-11T06:54:03.291Z,27.33
2022-08-11T07:00:03.393Z,28.10
2022-08-11T07:03:05.776Z,28.57
2022-08-11T07:05:54.235Z,28.93
2022-08-11T07:08:49.152Z,29.11
2022-08-11T07:11:53.972Z,29.55
2022-08-11T07:14:44.465Z,29.77
2022-08-11T07:17:26.859Z,30.06
2022-08-11T07:20:16.672Z,30.24
2022-08-11T07:23:11.277Z,30.44
2022-08-11T07:26:01.056Z,30.60
2022-08-11T07:28:50.085Z,30.92
2022-08-11T07:31:26.916Z,31.32
2022-08-11T07:34:07.673Z,31.83
2022-08-11T07:36:42.951Z,32.09
2022-08-11T07:39:19.089Z,32.39
2022-08-11T07:41:47.703Z,33.16
2022-08-11T07:44:17.178Z,33.02
2022-08-11T07:47:23.284Z,33.14
2022-08-11T07:50:12.612Z,33.53
2022-08-11T07:52:43.992Z,33.44
2022-08-11T07:55:17.686Z,33.66
2022-08-11T07:58:16.477Z,34.11
2022-08-11T08:01:22.539Z,34.71
2022-08-11T08:04:10.210Z,34.75
2022-08-11T08:06:57.684Z,34.66
2022-08-11T08:09:44.640Z,33.58
2022-08-11T08:12:32.411Z,32.32
2022-08-11T08:15:25.117Z,32.37
2022-08-11T08:18:09.264Z,33.43
2022-08-11T08:20:52.106Z,34.75
2022-08-11T08:23:34.542Z,35.49
2022-08-11T08:26:04.776Z,35.15
2022-08-11T08:28:33.955Z,34.38
2022-08-11T08:31:02.325Z,34.71
2022-08-11T08:33:32.299Z,35.10
2022-08-11T08:36:17.316Z,35.02
2022-08-11T08:38:50.626Z,34.83
2022-08-11T08:41:32.541Z,33.52
2022-08-11T08:44:35.189Z,32.19
2022-08-11T08:46:58.165Z,30.96
2022-08-11T08:49:40.772Z,30.16
2022-08-11T08:52:30.812Z,30.98
2022-08-11T08:55:04.603Z,32.68
2022-08-11T08:57:39.789Z,34.10
2022-08-11T09:00:12.592Z,35.18
2022-08-11T09:02:45.439Z,36.34
2022-08-11T09:05:16.580Z,37.17
2022-08-11T09:07:47.789Z,37.48
2022-08-11T09:10:21.170Z,37.60
2022-08-11T09:12:50.507Z,37.94
2022-08-11T09:15:19.971Z,38.34
2022-08-11T09:17:51.840Z,38.46
2022-08-11T09:20:25.606Z,38.57
2022-08-11T09:24:07.386Z,38.71
2022-08-11T09:26:30.240Z,39.28
2022-08-11T09:29:00.522Z,39.79
2022-08-11T09:31:37.252Z,39.81
2022-08-11T09:34:08.281Z,40.19
2022-08-11T09:36:58.818Z,40.30
2022-08-11T09:39:47.890Z,41.06
2022-08-11T09:42:23.583Z,41.59
2022-08-11T09:44:53.917Z,42.02
2022-08-11T09:47:30.034Z,42.36
2022-08-11T09:50:02.691Z,42.69
2022-08-11T09:52:38.170Z,42.68
2022-08-11T09:55:11.309Z,42.91
2022-08-11T09:58:00.087Z,43.04
2022-08-11T10:00:40.848Z,43.04
2022-08-11T10:03:24.974Z,42.93
2022-08-11T10:06:17.605Z,43.10
2022-08-11T10:08:47.979Z,43.03
2022-08-11T10:11:18.958Z,43.09
2022-08-11T10:14:33.623Z,43.51
2022-08-11T10:16:54.407Z,43.82
2022-08-11T10:19:23.270Z,44.20
2022-08-11T10:22:12.707Z,44.36
2022-08-11T10:25:02.246Z,44.60
2022-08-11T10:27:43.144Z,44.03
2022-08-11T10:30:39.269Z,43.04
2022-08-11T10:33:37.926Z,41.96
2022-08-11T10:36:16.101Z,42.14
2022-08-11T10:38:52.506Z,42.25
2022-08-11T10:42:02.864Z,43.45
2022-08-11T10:44:36.065Z,42.39
2022-08-11T10:47:24.070Z,40.21
2022-08-11T10:50:11.758Z,38.07
2022-08-11T10:52:59.667Z,36.14
2022-08-11T10:55:48.881Z,34.55
2022-08-11T10:58:38.200Z,34.81
2022-08-11T11:01:06.145Z,35.57
2022-08-11T11:03:35.801Z,34.68
2022-08-11T11:06:29.273Z,34.14
2022-08-11T11:09:03.711Z,35.47
2022-08-11T11:11:56.247Z,37.81
2022-08-11T11:14:49.861Z,40.14
2022-08-11T11:17:53.825Z,41.93
2022-08-11T11:20:34.603Z,42.89
2022-08-11T11:23:26.613Z,43.33
2022-08-11T11:26:27.463Z,43.96
2022-08-11T11:29:20.633Z,43.79
2022-08-11T11:32:25.607Z,44.27
2022-08-11T11:35:19.489Z,45.21
2022-08-11T11:38:03.756Z,45.43
2022-08-11T11:40:33.820Z,45.97
2022-08-11T11:43:02.566Z,46.22
2022-08-11T11:45:30.873Z,46.40
2022-08-11T11:48:00.468Z,46.62
2022-08-11T11:50:36.904Z,46.81
2022-08-11T11:53:07.074Z,46.70
2022-08-11T11:55:36.180Z,45.91
2022-08-11T11:58:23.615Z,44.48
2022-08-11T12:01:11.827Z,42.43
2022-08-11T12:03:41.158Z,40.35
2022-08-11T12:06:12.290Z,39.13
2022-08-11T12:08:41.107Z,39.15
2022-08-11T12:11:29.823Z,38.02
2022-08-11T12:14:02.506Z,37.87
2022-08-11T12:16:35.071Z,39.25
2022-08-11T12:19:07.884Z,40.72
2022-08-11T12:21:37.408Z,41.87
2022-08-11T12:24:28.559Z,42.71
2022-08-11T12:27:18.149Z,43.10
2022-08-11T12:29:54.367Z,43.37
2022-08-11T12:32:26.426Z,43.52
2022-08-11T12:35:15.409Z,43.71
2022-08-11T12:37:52.084Z,43.67
2022-08-11T12:41:11.601Z,43.69
2022-08-11T12:43:57.063Z,43.62
2022-08-11T12:46:32.086Z,43.26
2022-08-11T12:49:28.665Z,42.99
2022-08-11T12:52:11.159Z,42.84
2022-08-11T12:55:13.959Z,42.48
2022-08-11T12:58:07.086Z,40.45
2022-08-11T13:00:53.791Z,38.96
2022-08-11T13:03:41.207Z,37.94
2022-08-11T13:06:09.670Z,36.96
2022-08-11T13:08:40.826Z,35.93
2022-08-11T13:11:55.514Z,34.96
2022-08-11T13:14:17.466Z,33.83
2022-08-11T13:17:04.865Z,33.05
2022-08-11T13:19:34.704Z,32.43
2022-08-11T13:22:07.446Z,32.04
2022-08-11T13:24:39.830Z,31.66
2022-08-11T13:27:08.161Z,31.23
2022-08-11T13:29:36.470Z,30.87
2022-08-11T13:32:04.581Z,30.48
2022-08-11T13:34:32.843Z,30.15
2022-08-11T13:37:05.382Z,29.83
2022-08-11T13:39:34.992Z,29.52
2022-08-11T13:42:04.212Z,29.23
2022-08-11T13:44:36.040Z,28.90
2022-08-11T13:47:06.777Z,28.63
2022-08-11T13:49:39.831Z,28.39
2022-08-11T13:52:14.757Z,28.29
2022-08-11T13:54:43.826Z,28.14
2022-08-11T13:58:08.893Z,28.01
2022-08-11T14:00:22.544Z,27.82
2022-08-11T14:02:57.050Z,27.65
2022-08-11T14:05:47.671Z,27.65
2022-08-11T14:08:37.430Z,27.51
2022-08-11T14:12:21.590Z,27.40
2022-08-11T14:14:31.080Z,27.27
2022-08-11T14:17:09.074Z,27.07
2022-08-11T14:19:41.354Z,26.98
2022-08-11T14:22:12.358Z,26.86
2022-08-11T14:24:43.002Z,26.69
2022-08-11T14:28:29.786Z,26.60
2022-08-11T14:30:02.901Z,26.52
2022-08-11T14:32:33.863Z,26.49
2022-08-11T14:35:04.256Z,26.49
2022-08-11T14:37:31.916Z,26.46
2022-08-11T14:40:22.462Z,26.41
2022-08-11T14:43:08.518Z,26.39
2022-08-11T14:45:58.673Z,26.21
2022-08-11T14:48:27.139Z,26.11
2022-08-11T14:50:58.669Z,26.07
2022-08-11T14:53:26.558Z,26.02
2022-08-11T14:56:13.618Z,25.91
2022-08-11T14:58:43.524Z,25.91
2022-08-11T15:01:30.430Z,25.86
2022-08-11T15:04:27.336Z,25.84
2022-08-11T15:06:47.864Z,25.79
2022-08-11T15:09:16.840Z,25.70
2022-08-11T15:12:03.299Z,25.64
2022-08-11T15:14:49.992Z,25.64
2022-08-11T15:17:26.523Z,25.50
2022-08-11T15:20:35.528Z,25.45
2022-08-11T15:23:23.260Z,25.35
2022-08-11T15:25:55.575Z,25.31
2022-08-11T15:28:45.847Z,25.24
2022-08-11T15:31:34.627Z,25.21
2022-08-11T15:34:22.892Z,25.14
2022-08-11T15:37:13.845Z,25.11
2022-08-11T15:40:37.519Z,25.15
2022-08-11T15:43:30.401Z,24.98
2022-08-11T15:46:02.586Z,24.94
2022-08-11T15:48:33.076Z,24.92
2022-08-11T15:51:11.360Z,24.90
2022-08-11T15:53:57.149Z,24.84
2022-08-11T15:56:32.279Z,24.79
2022-08-11T15:59:42.809Z,24.71
2022-08-11T16:02:32.300Z,24.68
2022-08-11T16:05:02.397Z,24.59
2022-08-11T16:07:39.113Z,24.57
2022-08-11T16:10:21.439Z,24.52
2022-08-11T16:13:06.781Z,24.56
2022-08-11T16:15:59.283Z,24.51
2022-08-11T16:18:41.041Z,24.42
2022-08-11T16:21:26.769Z,24.40
2022-08-11T16:24:02.068Z,24.35
2022-08-11T16:27:07.585Z,24.31
2022-08-11T16:29:21.894Z,24.23
2022-08-11T16:32:11.667Z,24.22
2022-08-11T16:34:59.469Z,24.17
2022-08-11T16:37:47.753Z,24.11
2022-08-11T16:40:16.250Z,24.03
2022-08-11T16:43:10.325Z,23.95
2022-08-11T16:45:59.444Z,23.87
2022-08-11T16:48:39.122Z,23.85
2022-08-11T16:51:10.297Z,23.73
2022-08-11T16:53:59.664Z,23.68
2022-08-11T16:56:32.984Z,23.57
2022-08-11T16:59:16.241Z,23.54
2022-08-11T17:01:57.121Z,23.48
2022-08-11T17:04:58.315Z,23.42
2022-08-11T17:07:48.369Z,23.34
2022-08-11T17:10:52.716Z,23.31
2022-08-11T17:13:29.422Z,23.25
2022-08-11T17:16:07.573Z,23.20
2022-08-11T17:18:41.441Z,23.19
2022-08-11T17:22:04.916Z,23.19
2022-08-11T17:24:40.605Z,23.11
2022-08-11T17:27:09.418Z,23.06
2022-08-11T17:29:55.076Z,23.09
2022-08-11T17:32:56.140Z,23.06
2022-08-11T17:35:33.026Z,22.99
2022-08-11T17:38:14.446Z,23.01
2022-08-11T17:41:04.700Z,22.90
2022-08-11T17:43:52.133Z,22.90
2022-08-11T17:46:38.768Z,22.90
2022-08-11T17:49:08.662Z,22.87
2022-08-11T17:51:57.407Z,22.84
2022-08-11T17:54:45.085Z,22.82
2022-08-11T17:57:33.968Z,22.80
2022-08-11T18:00:03.920Z,22.80
2022-08-11T18:03:07.411Z,22.74
2022-08-11T18:05:37.946Z,22.72
2022-08-11T18:08:27.719Z,22.66
2022-08-11T18:12:00.070Z,22.58
2022-08-11T18:14:27.671Z,22.57
2022-08-11T18:17:13.742Z,22.51
2022-08-11T18:20:02.461Z,22.45
2022-08-11T18:23:01.917Z,22.38
2022-08-11T18:25:59.467Z,22.37
2022-08-11T18:28:51.319Z,22.34
2022-08-11T18:31:40.177Z,22.28
2022-08-11T18:34:32.351Z,22.23
2022-08-11T18:37:29.081Z,22.31
2022-08-11T18:40:20.819Z,22.24
2022-08-11T18:43:08.761Z,22.30
2022-08-11T18:46:06.700Z,22.22
2022-08-11T18:49:00.532Z,22.22
2022-08-11T18:51:47.340Z,22.12
2022-08-11T18:54:34.673Z,22.08
2022-08-11T18:57:25.372Z,22.08
2022-08-11T19:00:14.097Z,21.95
2022-08-11T19:03:04.460Z,21.96
2022-08-11T19:06:32.026Z,21.92
2022-08-11T19:09:05.678Z,21.89
2022-08-11T19:11:53.470Z,21.85
2022-08-11T19:14:41.568Z,21.80
2022-08-11T19:17:44.713Z,21.76
2022-08-11T19:20:35.439Z,21.73
2022-08-11T19:23:24.877Z,21.63
2022-08-11T19:26:12.396Z,21.58
2022-08-11T19:29:01.465Z,21.53
2022-08-11T19:31:48.527Z,21.52
2022-08-11T19:34:37.704Z,21.48
2022-08-11T19:37:26.085Z,21.43
2022-08-11T19:40:17.293Z,21.32
2022-08-11T19:43:18.760Z,21.33
2022-08-11T19:46:13.485Z,21.32
2022-08-11T19:49:01.878Z,21.25
2022-08-11T19:51:54.148Z,21.25
2022-08-11T19:54:50.517Z,21.24
2022-08-11T19:57:40.184Z,21.17
2022-08-11T20:00:33.941Z,21.23
2022-08-11T20:03:27.377Z,21.23
2022-08-11T20:06:17.293Z,21.24
2022-08-11T20:09:05.613Z,21.19
2022-08-11T20:11:57.281Z,21.15
2022-08-11T20:14:46.486Z,21.11
2022-08-11T20:17:33.851Z,21.08
2022-08-11T20:20:24.643Z,21.13
2022-08-11T20:23:14.121Z,20.97
2022-08-11T20:26:14.160Z,20.95
2022-08-11T20:29:10.649Z,20.89
2022-08-11T20:31:58.141Z,20.86
2022-08-11T20:34:44.888Z,20.85
2022-08-11T20:37:32.543Z,20.85
2022-08-11T20:40:23.717Z,20.73
2022-08-11T20:44:05.498Z,20.75
2022-08-11T20:46:17.810Z,20.74
2022-08-11T20:49:08.081Z,20.75
2022-08-11T20:51:56.026Z,20.75
2022-08-11T20:54:45.850Z,20.74
2022-08-11T20:57:59.573Z,20.70
2022-08-11T21:00:44.317Z,20.76
2022-08-11T21:03:36.224Z,20.63
2022-08-11T21:06:26.297Z,20.56
2022-08-11T21:09:23.884Z,20.53
2022-08-11T21:12:31.497Z,20.51
2022-08-11T21:15:39.019Z,20.50
2022-08-11T21:18:29.466Z,20.46
2022-08-11T21:21:19.349Z,20.44
2022-08-11T21:24:09.859Z,20.36
2022-08-11T21:27:03.428Z,20.34
2022-08-11T21:29:53.210Z,20.28
2022-08-11T21:32:40.705Z,20.21
2022-08-11T21:35:28.534Z,20.12
2022-08-11T21:38:17.466Z,20.06
2022-08-11T21:41:05.816Z,20.03
2022-08-11T21:43:53.228Z,20.03
2022-08-11T21:46:40.959Z,20.12
2022-08-11T21:49:30.083Z,19.98
2022-08-11T21:52:16.198Z,19.96
2022-08-11T21:55:02.986Z,19.94
2022-08-11T21:57:50.711Z,19.92
2022-08-11T22:00:39.731Z,19.96
2022-08-11T22:03:25.795Z,19.86
2022-08-11T22:06:13.814Z,19.94
2022-08-11T22:09:01.084Z,19.95
2022-08-11T22:11:47.368Z,19.97
2022-08-11T22:14:33.591Z,19.92
2022-08-11T22:17:19.597Z,19.90
2022-08-11T22:20:06.020Z,19.89
2022-08-11T22:22:53.871Z,19.86
2022-08-11T22:25:50.719Z,19.85
2022-08-11T22:28:38.329Z,19.83
2022-08-11T22:31:26.990Z,19.80
2022-08-11T22:34:13.751Z,19.76
2022-08-11T22:37:02.104Z,19.71
2022-08-11T22:39:59.666Z,19.68
2022-08-11T22:42:50.810Z,19.60
2022-08-11T22:45:37.820Z,19.59
2022-08-11T22:48:25.016Z,19.54
2022-08-11T22:51:13.529Z,19.52
2022-08-11T22:54:00.196Z,19.48
2022-08-11T22:56:50.583Z,19.44
2022-08-11T22:59:38.084Z,19.40
2022-08-11T23:02:24.699Z,19.49
2022-08-11T23:05:12.306Z,19.28
2022-08-11T23:08:00.435Z,19.29
2022-08-11T23:10:47.298Z,19.24
2022-08-11T23:13:34.576Z,19.24
2022-08-11T23:16:21.337Z,19.19
2022-08-11T23:19:07.503Z,19.16
2022-08-11T23:21:54.655Z,19.16
2022-08-11T23:24:43.230Z,19.12
2022-08-11T23:27:30.302Z,19.14
2022-08-11T23:30:19.236Z,19.17
2022-08-11T23:33:09.725Z,19.11
2022-08-11T23:36:04.428Z,19.12
2022-08-11T23:38:51.797Z,19.15
2022-08-11T23:41:38.801Z,19.07
2022-08-11T23:44:27.192Z,19.05
2022-08-11T23:47:18.485Z,19.03
2022-08-11T23:50:06.112Z,19.05
2022-08-11T23:52:54.868Z,19.10
2022-08-11T23:55:40.814Z,19.07
2022-08-11T23:58:28.028Z,19.05
